Wetterdaten: Samstag, 09.05.2015
Datum Zeit Temp. A. Feuchte A. Luftdruck Regen Wind Richtung Richtung Sonnenschein ET UV Solar Taupunkt Windchill Windben Empfang
09.05.2015 00:00 13,3 C 77 % 1013,2 hPa 0,0 l/m 0,0 km/h (0 Bft) SW 217 0 min 0,000 mm 0,0 UV-I 0 W/m 9,4 C 13,3 C 0,0 km/h (0 Bft) 0,00 %
09.05.2015 00:15 13,2 C 76 % 1013,4 hPa 0,0 l/m 0,0 km/h (0 Bft) S 183 0 min 0,000 mm 0,0 UV-I 0 W/m 9,1 C 13,2 C 0,0 km/h (0 Bft) 0,00 %
09.05.2015 00:30 12,9 C 79 % 1013,8 hPa 0,0 l/m 0,0 km/h (0 Bft) S 185 0 min 0,000 mm 0,0 UV-I 0 W/m 9,3 C 12,9 C 0,0 km/h (0 Bft) 0,00 %
09.05.2015 00:45 12,5 C 80 % 1014,1 hPa 0,0 l/m 0,0 km/h (0 Bft) S 177 0 min 0,000 mm 0,0 UV-I 0 W/m 9,1 C 12,5 C 0,0 km/h (0 Bft) 0,00 %
09.05.2015 01:00 12,6 C 79 % 1013,8 hPa 0,0 l/m 0,0 km/h (0 Bft) S 185 0 min 0,000 mm 0,0 UV-I 0 W/m 9,1 C 12,6 C 0,0 km/h (0 Bft) 0,00 %
09.05.2015 01:15 12,6 C 79 % 1013,9 hPa 0,0 l/m 0,0 km/h (0 Bft) S 187 0 min 0,000 mm 0,0 UV-I 0 W/m 9,1 C 12,6 C 0,0 km/h (0 Bft) 0,00 %
09.05.2015 01:30 12,4 C 81 % 1014,2 hPa 0,0 l/m 0,0 km/h (0 Bft) S 185 0 min 0,000 mm 0,0 UV-I 0 W/m 9,2 C 12,4 C 0,0 km/h (0 Bft) 0,00 %
09.05.2015 01:45 12,2 C 81 % 1014,2 hPa 0,0 l/m 0,0 km/h (0 Bft) S 187 0 min 0,000 mm 0,0 UV-I 0 W/m 9,0 C 12,2 C 0,0 km/h (0 Bft) 0,00 %
09.05.2015 02:00 12,5 C 79 % 1014,2 hPa 0,0 l/m 0,0 km/h (0 Bft) S 191 0 min 0,000 mm 0,0 UV-I 0 W/m 9,0 C 12,5 C 0,0 km/h (0 Bft) 0,00 %
09.05.2015 02:15 12,9 C 76 % 1014,1 hPa 0,0 l/m 0,0 km/h (0 Bft) S 174 0 min 0,000 mm 0,0 UV-I 0 W/m 8,8 C 12,9 C 0,0 km/h (0 Bft) 0,00 %
09.05.2015 02:30 12,8 C 76 % 1014,3 hPa 0,0 l/m 0,0 km/h (0 Bft) S 180 0 min 0,000 mm 0,0 UV-I 0 W/m 8,7 C 12,8 C 0,0 km/h (0 Bft) 0,00 %
09.05.2015 02:45 12,5 C 78 % 1014,5 hPa 0,0 l/m 0,0 km/h (0 Bft) S 175 0 min 0,000 mm 0,0 UV-I 0 W/m 8,8 C 12,5 C 0,0 km/h (0 Bft) 0,00 %
09.05.2015 03:00 12,4 C 78 % 1015,0 hPa 0,0 l/m 0,0 km/h (0 Bft) S 172 0 min 0,000 mm 0,0 UV-I 0 W/m 8,7 C 12,4 C 0,0 km/h (0 Bft) 0,00 %
09.05.2015 03:15 12,8 C 77 % 1015,1 hPa 0,0 l/m 1,8 km/h (1 Bft) W-SW 255 0 min 0,000 mm 0,0 UV-I 0 W/m 8,9 C 12,8 C 4,0 km/h (1 Bft) 0,00 %
09.05.2015 03:30 12,8 C 77 % 1015,4 hPa 0,0 l/m 4,0 km/h (1 Bft) W-SW 256 0 min 0,000 mm 0,0 UV-I 0 W/m 8,9 C 12,8 C 7,9 km/h (2 Bft) 0,00 %
09.05.2015 03:45 12,9 C 78 % 1015,5 hPa 0,0 l/m 2,2 km/h (1 Bft) W-NW 292 0 min 0,000 mm 0,0 UV-I 0 W/m 9,2 C 12,9 C 4,0 km/h (1 Bft) 0,00 %
09.05.2015 04:00 12,8 C 80 % 1015,6 hPa 0,0 l/m 0,7 km/h (0 Bft) SO 141 0 min 0,000 mm 0,0 UV-I 0 W/m 9,4 C 12,8 C 4,0 km/h (1 Bft) 0,00 %
09.05.2015 04:15 12,8 C 80 % 1015,8 hPa 0,0 l/m 0,7 km/h (0 Bft) S 180 0 min 0,000 mm 0,0 UV-I 0 W/m 9,4 C 12,8 C 4,0 km/h (1 Bft) 0,00 %
09.05.2015 04:30 13,1 C 78 % 1015,9 hPa 0,0 l/m 4,3 km/h (1 Bft) SO 140 0 min 0,000 mm 0,0 UV-I 0 W/m 9,4 C 13,1 C 7,9 km/h (2 Bft) 0,00 %
09.05.2015 04:45 13,2 C 78 % 1016,3 hPa 0,0 l/m 0,4 km/h (0 Bft) S 176 0 min 0,000 mm 0,0 UV-I 0 W/m 9,4 C 13,2 C 4,0 km/h (1 Bft) 0,00 %
09.05.2015 05:00 12,8 C 80 % 1016,4 hPa 0,0 l/m 0,7 km/h (0 Bft) SO 131 0 min 0,000 mm 0,0 UV-I 0 W/m 9,4 C 12,8 C 4,0 km/h (1 Bft) 0,00 %
09.05.2015 05:15 12,7 C 80 % 1016,6 hPa 0,0 l/m 1,4 km/h (1 Bft) N-NO 28 0 min 0,000 mm 0,0 UV-I 0 W/m 9,3 C 12,7 C 4,0 km/h (1 Bft) 0,00 %
09.05.2015 05:30 12,7 C 79 % 1016,8 hPa 0,0 l/m 1,8 km/h (1 Bft) SW 221 0 min 0,000 mm 0,0 UV-I 0 W/m 9,2 C 12,7 C 4,0 km/h (1 Bft) 0,00 %
09.05.2015 05:45 12,8 C 78 % 1016,9 hPa 0,0 l/m 8,3 km/h (2 Bft) W-SW 256 0 min 0,000 mm 0,0 UV-I 4 W/m 9,1 C 11,6 C 11,9 km/h (2 Bft) 0,00 %
09.05.2015 06:00 12,9 C 78 % 1017,1 hPa 0,0 l/m 0,4 km/h (0 Bft) S 174 0 min 0,000 mm 0,0 UV-I 21 W/m 9,2 C 12,9 C 4,0 km/h (1 Bft) 0,00 %
09.05.2015 06:15 13,2 C 77 % 1017,3 hPa 0,0 l/m 4,0 km/h (1 Bft) W-SW 251 0 min 0,000 mm 0,0 UV-I 37 W/m 9,3 C 13,2 C 4,0 km/h (1 Bft) 0,00 %
09.05.2015 06:30 13,7 C 74 % 1017,4 hPa 0,0 l/m 4,7 km/h (1 Bft) N 353 15 min 0,000 mm 1,0 UV-I 75 W/m 9,2 C 13,7 C 7,9 km/h (2 Bft) 0,00 %
09.05.2015 06:45 14,0 C 74 % 1017,5 hPa 0,0 l/m 3,2 km/h (1 Bft) S-SW 209 15 min 0,000 mm 1,0 UV-I 110 W/m 9,4 C 14,0 C 7,9 km/h (2 Bft) 0,00 %
09.05.2015 07:00 14,5 C 72 % 1017,7 hPa 0,0 l/m 4,7 km/h (1 Bft) W-SW 250 15 min 0,000 mm 1,0 UV-I 132 W/m 9,5 C 14,5 C 7,9 km/h (2 Bft) 0,00 %
09.05.2015 07:15 14,8 C 72 % 1017,9 hPa 0,0 l/m 7,9 km/h (2 Bft) W-SW 253 15 min 0,000 mm 1,0 UV-I 192 W/m 9,8 C 13,9 C 11,9 km/h (2 Bft) 0,00 %
09.05.2015 07:30 15,1 C 71 % 1018,0 hPa 0,0 l/m 7,2 km/h (2 Bft) W-SW 241 15 min 0,000 mm 1,0 UV-I 188 W/m 9,9 C 14,6 C 7,9 km/h (2 Bft) 0,00 %
09.05.2015 07:45 15,1 C 71 % 1018,2 hPa 0,0 l/m 0,4 km/h (0 Bft) S 177 0 min 0,000 mm 1,0 UV-I 177 W/m 9,9 C 15,1 C 4,0 km/h (1 Bft) 0,00 %
09.05.2015 08:00 15,0 C 72 % 1018,2 hPa 0,0 l/m 0,0 km/h (0 Bft) SW 217 0 min 0,000 mm 1,0 UV-I 147 W/m 10,0 C 15,0 C 0,0 km/h (0 Bft) 0,00 %
09.05.2015 08:15 14,9 C 72 % 1018,4 hPa 0,0 l/m 5,8 km/h (2 Bft) W-SW 256 0 min 0,000 mm 1,0 UV-I 126 W/m 9,9 C 14,9 C 11,9 km/h (2 Bft) 0,00 %
09.05.2015 08:30 15,1 C 72 % 1018,5 hPa 0,0 l/m 10,4 km/h (2 Bft) W-SW 256 0 min 0,000 mm 1,0 UV-I 163 W/m 10,1 C 13,1 C 15,8 km/h (3 Bft) 0,00 %
09.05.2015 08:45 15,4 C 70 % 1018,8 hPa 0,0 l/m 0,0 km/h (0 Bft) S 173 0 min 0,000 mm 1,0 UV-I 201 W/m 10,0 C 15,4 C 0,0 km/h (0 Bft) 0,00 %
09.05.2015 09:00 15,3 C 73 % 1019,1 hPa 0,0 l/m 11,9 km/h (2 Bft) W-SW 256 0 min 0,000 mm 1,0 UV-I 195 W/m 10,5 C 12,7 C 15,8 km/h (3 Bft) 0,00 %
09.05.2015 09:15 14,9 C 75 % 1019,0 hPa 0,0 l/m 6,5 km/h (2 Bft) SW 223 0 min 0,000 mm 2,0 UV-I 104 W/m 10,5 C 14,9 C 7,9 km/h (2 Bft) 0,00 %
09.05.2015 09:30 15,7 C 70 % 1019,0 hPa 0,0 l/m 2,9 km/h (1 Bft) W-SW 252 0 min 0,000 mm 2,0 UV-I 241 W/m 10,2 C 15,7 C 4,0 km/h (1 Bft) 0,00 %
09.05.2015 09:45 16,4 C 65 % 1018,9 hPa 0,0 l/m 0,4 km/h (0 Bft) O 91 0 min 0,000 mm 3,0 UV-I 276 W/m 9,8 C 16,4 C 4,0 km/h (1 Bft) 0,00 %
09.05.2015 10:00 16,7 C 66 % 1019,1 hPa 0,0 l/m 1,4 km/h (1 Bft) S 173 15 min 0,000 mm 1,0 UV-I 398 W/m 10,3 C 16,7 C 4,0 km/h (1 Bft) 0,00 %
09.05.2015 10:15 15,6 C 75 % 1019,5 hPa 0,0 l/m 1,4 km/h (1 Bft) S-SW 211 0 min 0,000 mm 1,0 UV-I 196 W/m 11,2 C 15,6 C 4,0 km/h (1 Bft) 0,00 %
09.05.2015 10:30 15,4 C 76 % 1019,6 hPa 0,0 l/m 1,4 km/h (1 Bft) SW 218 0 min 0,000 mm 2,0 UV-I 183 W/m 11,2 C 15,4 C 4,0 km/h (1 Bft) 0,00 %
09.05.2015 10:45 15,9 C 72 % 1019,6 hPa 0,0 l/m 7,2 km/h (2 Bft) W-SW 255 0 min 0,000 mm 2,0 UV-I 234 W/m 10,9 C 15,5 C 11,9 km/h (2 Bft) 0,00 %
09.05.2015 11:00 16,4 C 68 % 1019,4 hPa 0,0 l/m 3,2 km/h (1 Bft) S 184 0 min 0,000 mm 2,0 UV-I 270 W/m 10,5 C 16,4 C 7,9 km/h (2 Bft) 0,00 %
09.05.2015 11:15 16,6 C 65 % 1019,6 hPa 0,0 l/m 0,0 km/h (0 Bft) S 191 0 min 0,000 mm 2,0 UV-I 249 W/m 10,0 C 16,6 C 0,0 km/h (0 Bft) 0,00 %
09.05.2015 11:30 17,2 C 65 % 1019,6 hPa 0,0 l/m 10,8 km/h (2 Bft) SW 228 0 min 0,000 mm 2,0 UV-I 305 W/m 10,6 C 15,2 C 15,8 km/h (3 Bft) 0,00 %
09.05.2015 11:45 16,7 C 67 % 1019,6 hPa 0,0 l/m 0,7 km/h (0 Bft) S-SW 200 0 min 0,000 mm 2,0 UV-I 223 W/m 10,5 C 16,7 C 4,0 km/h (1 Bft) 0,00 %
09.05.2015 12:00 16,4 C 70 % 1019,8 hPa 0,0 l/m 0,0 km/h (0 Bft) O 101 0 min 0,000 mm 2,0 UV-I 205 W/m 10,9 C 16,4 C 0,0 km/h (0 Bft) 0,00 %
09.05.2015 12:15 16,3 C 70 % 1019,6 hPa 0,0 l/m 6,5 km/h (2 Bft) SW 228 0 min 0,000 mm 2,0 UV-I 209 W/m 10,8 C 16,3 C 7,9 km/h (2 Bft) 0,00 %
09.05.2015 12:30 16,8 C 69 % 1020,0 hPa 0,0 l/m 0,0 km/h (0 Bft) SW 227 0 min 0,000 mm 3,0 UV-I 253 W/m 11,1 C 16,8 C 0,0 km/h (0 Bft) 0,00 %
09.05.2015 12:45 17,3 C 68 % 1019,7 hPa 0,0 l/m 5,4 km/h (1 Bft) W-SW 237 0 min 0,000 mm 1,0 UV-I 376 W/m 11,3 C 17,3 C 7,9 km/h (2 Bft) 0,00 %
09.05.2015 13:00 16,2 C 71 % 1019,8 hPa 0,0 l/m 0,4 km/h (0 Bft) W-NW 296 0 min 0,000 mm 3,0 UV-I 189 W/m 10,9 C 16,2 C 4,0 km/h (1 Bft) 0,00 %
09.05.2015 13:15 17,7 C 66 % 1019,5 hPa 0,0 l/m 1,4 km/h (1 Bft) S-SO 150 0 min 0,000 mm 4,0 UV-I 388 W/m 11,3 C 17,7 C 4,0 km/h (1 Bft) 0,00 %
09.05.2015 13:30 17,8 C 64 % 1019,4 hPa 0,0 l/m 2,2 km/h (1 Bft) W-NW 293 15 min 0,000 mm 3,0 UV-I 580 W/m 10,9 C 17,8 C 4,0 km/h (1 Bft) 0,00 %
09.05.2015 13:45 17,3 C 64 % 1019,4 hPa 0,0 l/m 10,4 km/h (2 Bft) W-SW 255 0 min 0,000 mm 3,0 UV-I 337 W/m 10,4 C 15,5 C 15,8 km/h (3 Bft) 0,00 %
09.05.2015 14:00 17,8 C 63 % 1019,2 hPa 0,0 l/m 4,3 km/h (1 Bft) W-SW 255 0 min 0,000 mm 3,0 UV-I 390 W/m 10,7 C 17,8 C 7,9 km/h (2 Bft) 0,00 %
09.05.2015 14:15 16,8 C 69 % 1019,5 hPa 0,0 l/m 2,9 km/h (1 Bft) W-SW 255 0 min 0,000 mm 0,0 UV-I 306 W/m 11,1 C 16,8 C 7,9 km/h (2 Bft) 0,00 %
09.05.2015 14:30 15,2 C 82 % 1019,7 hPa 0,0 l/m 4,3 km/h (1 Bft) S 184 0 min 0,000 mm 3,0 UV-I 43 W/m 12,1 C 15,2 C 7,9 km/h (2 Bft) 0,00 %
09.05.2015 14:45 16,2 C 77 % 1019,4 hPa 0,0 l/m 2,2 km/h (1 Bft) NO 55 0 min 0,000 mm 2,0 UV-I 362 W/m 12,2 C 16,2 C 7,9 km/h (2 Bft) 0,00 %
09.05.2015 15:00 16,3 C 72 % 1019,6 hPa 0,0 l/m 0,7 km/h (0 Bft) W-SW 253 0 min 0,000 mm 1,0 UV-I 235 W/m 11,2 C 16,3 C 4,0 km/h (1 Bft) 0,00 %
09.05.2015 15:15 16,3 C 71 % 1019,1 hPa 0,0 l/m 2,9 km/h (1 Bft) SW 220 0 min 0,000 mm 2,0 UV-I 175 W/m 11,0 C 16,3 C 4,0 km/h (1 Bft) 0,00 %
09.05.2015 15:30 16,5 C 68 % 1019,1 hPa 0,0 l/m 1,8 km/h (1 Bft) W-SW 245 0 min 0,000 mm 2,0 UV-I 219 W/m 10,6 C 16,5 C 4,0 km/h (1 Bft) 0,00 %
09.05.2015 15:45 17,6 C 64 % 1018,9 hPa 0,0 l/m 1,8 km/h (1 Bft) W-SW 256 0 min 0,000 mm 3,0 UV-I 265 W/m 10,7 C 17,6 C 4,0 km/h (1 Bft) 0,00 %
09.05.2015 16:00 18,5 C 62 % 1018,5 hPa 0,0 l/m 5,8 km/h (2 Bft) SW 234 15 min 0,000 mm 2,0 UV-I 483 W/m 11,1 C 18,5 C 7,9 km/h (2 Bft) 0,00 %
09.05.2015 16:15 17,9 C 64 % 1018,6 hPa 0,0 l/m 0,0 km/h (0 Bft) S 185 0 min 0,000 mm 2,0 UV-I 327 W/m 11,0 C 17,9 C 0,0 km/h (0 Bft) 0,00 %
09.05.2015 16:30 18,9 C 61 % 1018,4 hPa 0,0 l/m 0,0 km/h (0 Bft) S-SW 193 15 min 0,000 mm 2,0 UV-I 380 W/m 11,2 C 18,9 C 0,0 km/h (0 Bft) 0,00 %
09.05.2015 16:45 18,8 C 62 % 1018,4 hPa 0,0 l/m 0,4 km/h (0 Bft) S-SW 196 15 min 0,000 mm 2,0 UV-I 335 W/m 11,4 C 18,8 C 4,0 km/h (1 Bft) 0,00 %
09.05.2015 17:00 18,2 C 64 % 1018,6 hPa 0,0 l/m 0,0 km/h (0 Bft) S 186 0 min 0,000 mm 0,0 UV-I 158 W/m 11,3 C 18,2 C 0,0 km/h (0 Bft) 0,00 %
09.05.2015 17:15 14,9 C 83 % 1019,9 hPa 5,7 l/m 0,0 km/h (0 Bft) S 191 0 min 0,000 mm 0,0 UV-I 5 W/m 12,0 C 14,9 C 0,0 km/h (0 Bft) 0,00 %
09.05.2015 17:30 11,7 C 88 % 1020,0 hPa 0,9 l/m 0,0 km/h (0 Bft) S-SW 193 0 min 0,000 mm 0,0 UV-I 37 W/m 9,8 C 11,7 C 0,0 km/h (0 Bft) 0,00 %
09.05.2015 17:45 12,0 C 90 % 1020,0 hPa 0,3 l/m 0,0 km/h (0 Bft) S 181 0 min 0,000 mm 0,0 UV-I 35 W/m 10,4 C 12,0 C 0,0 km/h (0 Bft) 0,00 %
09.05.2015 18:00 12,5 C 92 % 1019,8 hPa 0,0 l/m 0,0 km/h (0 Bft) S-SO 157 0 min 0,000 mm 0,0 UV-I 34 W/m 11,2 C 12,5 C 0,0 km/h (0 Bft) 0,00 %
09.05.2015 18:15 12,9 C 93 % 1019,5 hPa 0,0 l/m 0,0 km/h (0 Bft) S 175 0 min 0,000 mm 1,0 UV-I 83 W/m 11,8 C 12,9 C 0,0 km/h (0 Bft) 0,00 %
09.05.2015 18:30 13,3 C 93 % 1019,7 hPa 0,0 l/m 0,0 km/h (0 Bft) S 188 0 min 0,000 mm 0,0 UV-I 120 W/m 12,2 C 13,3 C 0,0 km/h (0 Bft) 0,00 %
09.05.2015 18:45 13,5 C 92 % 1019,7 hPa 0,0 l/m 0,0 km/h (0 Bft) S 174 0 min 0,000 mm 0,0 UV-I 51 W/m 12,2 C 13,5 C 0,0 km/h (0 Bft) 0,00 %
09.05.2015 19:00 13,3 C 94 % 1020,8 hPa 0,0 l/m 1,4 km/h (1 Bft) W-SW 252 0 min 0,000 mm 0,0 UV-I 37 W/m 12,4 C 13,3 C 4,0 km/h (1 Bft) 0,00 %
09.05.2015 19:15 12,0 C 92 % 1021,1 hPa 1,8 l/m 0,0 km/h (0 Bft) S 185 0 min 0,000 mm 0,0 UV-I 0 W/m 10,7 C 12,0 C 0,0 km/h (0 Bft) 0,00 %
09.05.2015 19:30 11,6 C 93 % 1021,1 hPa 1,2 l/m 0,0 km/h (0 Bft) S 176 0 min 0,000 mm 0,0 UV-I 0 W/m 10,5 C 11,6 C 0,0 km/h (0 Bft) 0,00 %
09.05.2015 19:45 11,6 C 94 % 1021,6 hPa 0,3 l/m 0,0 km/h (0 Bft) S 174 0 min 0,000 mm 0,0 UV-I 2 W/m 10,7 C 11,6 C 0,0 km/h (0 Bft) 0,00 %
09.05.2015 20:00 11,7 C 95 % 1021,6 hPa 0,0 l/m 0,4 km/h (0 Bft) SW 222 0 min 0,000 mm 0,0 UV-I 0 W/m 10,9 C 11,7 C 4,0 km/h (1 Bft) 0,00 %
09.05.2015 20:15 11,7 C 95 % 1021,7 hPa 0,0 l/m 0,0 km/h (0 Bft) S-SW 204 0 min 0,000 mm 0,0 UV-I 0 W/m 10,9 C 11,7 C 0,0 km/h (0 Bft) 0,00 %
09.05.2015 20:30 11,7 C 95 % 1021,6 hPa 0,0 l/m 0,0 km/h (0 Bft) W-SW 255 0 min 0,000 mm 0,0 UV-I 0 W/m 10,9 C 11,7 C 0,0 km/h (0 Bft) 0,00 %
09.05.2015 20:45 11,8 C 96 % 1021,7 hPa 0,0 l/m 0,0 km/h (0 Bft) S-SW 195 0 min 0,000 mm 0,0 UV-I 0 W/m 11,2 C 11,8 C 0,0 km/h (0 Bft) 0,00 %
09.05.2015 21:00 11,8 C 96 % 1021,8 hPa 0,0 l/m 0,0 km/h (0 Bft) S-SO 157 0 min 0,000 mm 0,0 UV-I 0 W/m 11,2 C 11,8 C 0,0 km/h (0 Bft) 0,00 %
09.05.2015 21:15 11,7 C 96 % 1021,7 hPa 0,0 l/m 0,0 km/h (0 Bft) S 183 0 min 0,000 mm 0,0 UV-I 0 W/m 11,1 C 11,7 C 0,0 km/h (0 Bft) 0,00 %
09.05.2015 21:30 11,6 C 95 % 1021,6 hPa 0,0 l/m 0,0 km/h (0 Bft) SW 220 0 min 0,000 mm 0,0 UV-I 0 W/m 10,8 C 11,6 C 0,0 km/h (0 Bft) 0,00 %
09.05.2015 21:45 11,5 C 95 % 1021,4 hPa 0,0 l/m 0,0 km/h (0 Bft) S 183 0 min 0,000 mm 0,0 UV-I 0 W/m 10,7 C 11,5 C 0,0 km/h (0 Bft) 0,00 %
09.05.2015 22:00 11,4 C 96 % 1021,8 hPa 0,0 l/m 0,0 km/h (0 Bft) S 189 0 min 0,000 mm 0,0 UV-I 0 W/m 10,8 C 11,4 C 0,0 km/h (0 Bft) 0,00 %
09.05.2015 22:15 11,2 C 96 % 1021,6 hPa 0,0 l/m 0,0 km/h (0 Bft) S 185 0 min 0,000 mm 0,0 UV-I 0 W/m 10,6 C 11,2 C 0,0 km/h (0 Bft) 0,00 %
09.05.2015 22:30 11,1 C 96 % 1021,8 hPa 0,0 l/m 0,0 km/h (0 Bft) S 181 0 min 0,000 mm 0,0 UV-I 0 W/m 10,5 C 11,1 C 0,0 km/h (0 Bft) 0,00 %
09.05.2015 22:45 10,8 C 97 % 1022,0 hPa 0,0 l/m 0,0 km/h (0 Bft) S 189 0 min 0,000 mm 0,0 UV-I 0 W/m 10,3 C 10,8 C 0,0 km/h (0 Bft) 0,00 %
09.05.2015 23:00 11,0 C 97 % 1021,8 hPa 0,0 l/m 0,0 km/h (0 Bft) S 184 0 min 0,000 mm 0,0 UV-I 0 W/m 10,5 C 11,0 C 0,0 km/h (0 Bft) 0,00 %
09.05.2015 23:15 10,8 C 97 % 1022,0 hPa 0,0 l/m 0,0 km/h (0 Bft) S-SW 204 0 min 0,000 mm 0,0 UV-I 0 W/m 10,3 C 10,8 C 0,0 km/h (0 Bft) 0,00 %
09.05.2015 23:30 10,5 C 97 % 1022,0 hPa 0,0 l/m 0,0 km/h (0 Bft) S 180 0 min 0,000 mm 0,0 UV-I 0 W/m 10,0 C 10,5 C 0,0 km/h (0 Bft) 0,00 %
_ Min-Zeit 23:30 16:30 00:00 - 00:00 - - - - - - 03:00 23:30 00:00 00:00
Minimum _ 10,5 C 61 % 1013,2 hPa - 0,0 km/h (0 Bft) - - - - - - 8,7 C 10,5 C 0,0 km/h (0 Bft) 0,00 %
_ Max-Zeit 16:30 22:45 22:45 17:15 09:00 - - 06:30 00:00 13:15 13:30 19:00 16:30 08:30 00:00
Maximum _ 18,9 C 97 % 1022,0 hPa 5,7 l/m 11,9 km/h
W-SW (2 Bft)
- - 15 min 0,000 mm 4,0 UV-I 580 W/m 12,4 C 18,9 C 15,8 km/h
W-SW (3 Bft)
0,00 %
Durchschnitt _ 14,1 C 79 % 1018,6 hPa #10,2 l/m 1,9 km/h (1 Bft) W-SW - #2:30 h #0,000 mm 1,9 UV-I 201 W/m 10,3 C 14,0 C 3,6 km/h (1 Bft) 0,00 %